createdAt,value
2017-12-09T00:02:28.384Z,20.02
2017-12-09T00:04:56.685Z,19.97
2017-12-09T00:07:25.067Z,19.96
2017-12-09T00:09:53.502Z,19.95
2017-12-09T00:12:22.076Z,19.92
2017-12-09T00:14:50.539Z,19.89
2017-12-09T00:17:18.871Z,19.90
2017-12-09T00:19:47.212Z,19.85
2017-12-09T00:22:17.425Z,19.84
2017-12-09T00:24:45.747Z,19.81
2017-12-09T00:27:14.080Z,19.80
2017-12-09T00:29:42.440Z,19.79
2017-12-09T00:32:10.760Z,19.77
2017-12-09T00:34:39.066Z,19.76
2017-12-09T00:37:07.616Z,19.75
2017-12-09T00:39:35.931Z,19.72
2017-12-09T00:42:04.455Z,19.74
2017-12-09T00:44:32.938Z,19.73
2017-12-09T00:47:01.319Z,19.70
2017-12-09T00:49:29.595Z,19.68
2017-12-09T00:51:58.189Z,19.67
2017-12-09T00:54:26.503Z,19.68
2017-12-09T00:56:54.838Z,19.67
2017-12-09T00:59:23.183Z,19.66
2017-12-09T01:01:51.466Z,19.62
2017-12-09T01:04:20.135Z,19.60
2017-12-09T01:06:48.415Z,19.61
2017-12-09T01:09:16.736Z,19.62
2017-12-09T01:11:45.203Z,19.60
2017-12-09T01:14:13.618Z,19.53
2017-12-09T01:18:58.159Z,19.56
2017-12-09T01:21:26.464Z,19.52
2017-12-09T01:23:54.775Z,19.54
2017-12-09T01:26:23.090Z,19.48
2017-12-09T01:28:51.444Z,19.47
2017-12-09T01:31:19.747Z,19.48
2017-12-09T01:33:48.016Z,19.43
2017-12-09T01:36:16.367Z,19.45
2017-12-09T01:38:44.679Z,19.43
2017-12-09T01:41:12.996Z,19.43
2017-12-09T01:43:41.363Z,19.40
2017-12-09T01:46:09.808Z,19.42
2017-12-09T01:48:38.111Z,19.40
2017-12-09T01:51:06.594Z,19.38
2017-12-09T01:53:34.936Z,19.36
2017-12-09T01:56:03.251Z,19.33
2017-12-09T01:58:31.559Z,19.32
2017-12-09T02:00:59.876Z,19.29
2017-12-09T02:03:28.311Z,19.26
2017-12-09T02:05:56.663Z,19.26
2017-12-09T02:08:24.939Z,19.25
2017-12-09T02:10:53.402Z,19.25
2017-12-09T02:13:21.838Z,19.24
2017-12-09T02:15:50.367Z,19.22
2017-12-09T02:18:18.626Z,19.19
2017-12-09T02:20:47.165Z,19.17
2017-12-09T02:23:15.475Z,19.18
2017-12-09T02:25:43.869Z,19.16
2017-12-09T02:28:12.575Z,19.15
2017-12-09T02:30:41.072Z,19.11
2017-12-09T02:33:09.591Z,19.07
2017-12-09T02:35:37.907Z,19.16
2017-12-09T02:38:06.196Z,19.15
2017-12-09T02:40:34.486Z,19.17
2017-12-09T02:43:04.323Z,19.20
2017-12-09T02:45:32.662Z,19.17
2017-12-09T02:48:01.210Z,19.19
2017-12-09T02:50:29.536Z,19.19
2017-12-09T02:52:57.846Z,19.19
2017-12-09T02:55:26.151Z,19.19
2017-12-09T02:57:54.492Z,19.16
2017-12-09T03:00:22.795Z,19.14
2017-12-09T03:02:51.095Z,19.12
2017-12-09T03:05:19.426Z,19.12
2017-12-09T03:07:47.769Z,19.13
2017-12-09T03:10:16.091Z,19.10
2017-12-09T03:12:44.399Z,19.11
2017-12-09T03:15:12.692Z,19.11
2017-12-09T03:17:40.967Z,19.05
2017-12-09T03:20:09.244Z,19.06
2017-12-09T03:22:37.519Z,19.11
2017-12-09T03:25:05.929Z,19.17
2017-12-09T03:27:34.194Z,19.21
2017-12-09T03:30:02.664Z,19.21
2017-12-09T03:32:30.978Z,19.23
2017-12-09T03:34:59.347Z,19.25
2017-12-09T03:37:27.982Z,19.26
2017-12-09T03:39:56.275Z,19.26
2017-12-09T03:42:24.723Z,19.25
2017-12-09T03:44:53.040Z,19.20
2017-12-09T03:47:21.367Z,19.19
2017-12-09T03:49:49.827Z,19.16
2017-12-09T03:52:18.110Z,19.14
2017-12-09T03:54:46.375Z,19.16
2017-12-09T03:57:14.687Z,19.14
2017-12-09T03:59:43.035Z,19.13
2017-12-09T04:02:11.339Z,19.11
2017-12-09T04:04:39.590Z,19.08
2017-12-09T04:07:07.890Z,19.13
2017-12-09T04:09:36.363Z,19.19
2017-12-09T04:12:04.676Z,19.21
2017-12-09T04:14:32.963Z,19.22
2017-12-09T04:17:01.255Z,19.24
2017-12-09T04:19:29.545Z,19.23
2017-12-09T04:21:57.835Z,19.25
2017-12-09T04:24:26.136Z,19.23
2017-12-09T04:26:54.502Z,19.21
2017-12-09T04:29:22.984Z,19.22
2017-12-09T04:31:51.272Z,19.17
2017-12-09T04:34:19.572Z,19.16
2017-12-09T04:36:47.883Z,19.14
2017-12-09T04:39:16.276Z,19.12
2017-12-09T04:41:44.571Z,19.14
2017-12-09T04:44:12.959Z,19.14
2017-12-09T04:46:41.248Z,19.10
2017-12-09T04:49:09.595Z,19.09
2017-12-09T04:51:37.924Z,19.07
2017-12-09T04:54:06.332Z,19.04
2017-12-09T04:56:34.651Z,19.02
2017-12-09T04:59:03.095Z,19.07
2017-12-09T05:01:31.383Z,19.14
2017-12-09T05:03:59.647Z,19.15
2017-12-09T05:06:27.946Z,19.17
2017-12-09T05:08:56.254Z,19.17
2017-12-09T05:11:24.712Z,19.14
2017-12-09T05:13:52.996Z,19.16
2017-12-09T05:16:21.267Z,19.14
2017-12-09T05:18:49.596Z,19.14
2017-12-09T05:21:17.935Z,19.12
2017-12-09T05:23:46.211Z,19.14
2017-12-09T05:26:14.562Z,19.17
2017-12-09T05:28:42.866Z,19.18
2017-12-09T05:31:11.336Z,19.22
2017-12-09T05:33:39.778Z,19.23
2017-12-09T05:36:08.160Z,19.21
2017-12-09T05:38:36.451Z,19.20
2017-12-09T05:41:04.827Z,19.21
2017-12-09T05:43:33.203Z,19.19
2017-12-09T05:46:01.492Z,19.17
2017-12-09T05:48:29.824Z,19.16
2017-12-09T05:50:58.147Z,19.13
2017-12-09T05:53:26.591Z,19.13
2017-12-09T05:55:54.927Z,19.10
2017-12-09T05:58:23.191Z,19.10
2017-12-09T06:00:51.663Z,19.08
2017-12-09T06:03:19.915Z,19.06
2017-12-09T06:05:48.248Z,19.13
2017-12-09T06:08:16.675Z,19.15
2017-12-09T06:10:44.988Z,19.17
2017-12-09T06:13:13.483Z,19.17
2017-12-09T06:15:41.931Z,19.17
2017-12-09T06:18:10.607Z,19.17
2017-12-09T06:20:39.098Z,19.16
2017-12-09T06:23:07.414Z,19.15
2017-12-09T06:25:35.886Z,19.15
2017-12-09T06:28:04.236Z,19.15
2017-12-09T06:30:32.595Z,19.12
2017-12-09T06:33:00.925Z,19.09
2017-12-09T06:35:29.375Z,19.11
2017-12-09T06:37:57.707Z,19.16
2017-12-09T06:40:26.012Z,19.17
2017-12-09T06:42:54.372Z,19.20
2017-12-09T06:45:22.656Z,19.19
2017-12-09T06:47:51.132Z,19.19
2017-12-09T06:50:19.426Z,19.20
2017-12-09T06:52:47.775Z,19.18
2017-12-09T06:55:16.107Z,19.18
2017-12-09T06:57:44.463Z,19.19
2017-12-09T07:00:12.761Z,19.17
2017-12-09T07:02:41.111Z,19.16
2017-12-09T07:05:09.502Z,19.16
2017-12-09T07:07:37.786Z,19.19
2017-12-09T07:10:07.084Z,19.23
2017-12-09T07:12:35.373Z,19.24
2017-12-09T07:15:03.663Z,19.25
2017-12-09T07:17:32.076Z,19.21
2017-12-09T07:20:00.334Z,19.20
2017-12-09T07:22:28.723Z,19.19
2017-12-09T07:24:57.111Z,19.22
2017-12-09T07:27:25.427Z,19.24
2017-12-09T07:29:53.707Z,19.24
2017-12-09T07:32:22.104Z,19.25
2017-12-09T07:34:50.351Z,19.25
2017-12-09T07:37:18.642Z,19.26
2017-12-09T07:39:46.979Z,19.27
2017-12-09T07:42:15.319Z,19.26
2017-12-09T07:44:43.789Z,19.27
2017-12-09T07:47:12.243Z,19.28
2017-12-09T07:49:40.715Z,19.30
2017-12-09T07:52:09.590Z,19.32
2017-12-09T07:54:38.778Z,19.33
2017-12-09T07:57:07.247Z,19.34
2017-12-09T07:59:35.525Z,19.37
2017-12-09T08:02:03.886Z,19.39
2017-12-09T08:04:32.211Z,19.42
2017-12-09T08:07:00.670Z,19.45
2017-12-09T08:09:28.947Z,19.48
2017-12-09T08:11:57.313Z,19.48
2017-12-09T08:14:25.618Z,19.49
2017-12-09T08:16:54.020Z,19.51
2017-12-09T08:19:22.309Z,19.50
2017-12-09T08:21:50.631Z,19.51
2017-12-09T08:24:18.910Z,19.56
2017-12-09T08:26:47.327Z,19.59
2017-12-09T08:29:15.588Z,19.59
2017-12-09T08:31:43.925Z,19.58
2017-12-09T08:34:12.222Z,19.57
2017-12-09T08:36:41.642Z,19.56
2017-12-09T08:39:09.927Z,19.53
2017-12-09T08:41:38.270Z,19.52
2017-12-09T08:44:06.551Z,19.48
2017-12-09T08:46:34.896Z,19.47
2017-12-09T08:49:03.611Z,19.49
2017-12-09T08:51:31.943Z,19.48
2017-12-09T08:54:00.216Z,19.46
2017-12-09T08:56:28.579Z,19.45
2017-12-09T08:58:56.843Z,19.41
2017-12-09T09:01:25.171Z,19.43
2017-12-09T09:03:53.463Z,19.48
2017-12-09T09:06:21.772Z,19.45
2017-12-09T09:08:50.067Z,19.51
2017-12-09T09:11:18.644Z,19.52
2017-12-09T09:13:46.923Z,19.53
2017-12-09T09:16:15.611Z,19.52
2017-12-09T09:18:43.952Z,19.49
2017-12-09T09:21:12.292Z,19.49
2017-12-09T09:23:40.564Z,19.48
2017-12-09T09:26:08.867Z,19.46
2017-12-09T09:28:37.159Z,19.45
2017-12-09T09:31:05.606Z,19.45
2017-12-09T09:33:33.950Z,19.43
2017-12-09T09:36:02.447Z,19.41
2017-12-09T09:38:30.888Z,19.45
2017-12-09T09:40:59.205Z,19.54
2017-12-09T09:43:27.482Z,19.66
2017-12-09T09:45:55.756Z,19.78
2017-12-09T09:48:24.045Z,19.85
2017-12-09T09:50:52.364Z,19.87
2017-12-09T09:53:20.604Z,19.85
2017-12-09T09:55:48.876Z,19.84
2017-12-09T09:58:17.474Z,19.83
2017-12-09T10:00:45.799Z,19.86
2017-12-09T10:03:14.070Z,19.92
2017-12-09T10:05:42.454Z,19.98
2017-12-09T10:08:10.718Z,20.02
2017-12-09T10:10:39.015Z,20.05
2017-12-09T10:13:07.291Z,20.01
2017-12-09T10:15:35.784Z,19.99
2017-12-09T10:18:04.108Z,19.93
2017-12-09T10:20:32.532Z,19.93
2017-12-09T10:23:00.791Z,20.00
2017-12-09T10:25:29.112Z,19.97
2017-12-09T10:27:57.650Z,19.96
2017-12-09T10:30:26.054Z,20.02
2017-12-09T10:32:54.478Z,20.06
2017-12-09T10:35:22.784Z,20.01
2017-12-09T10:37:51.059Z,19.97
2017-12-09T10:40:19.483Z,20.06
2017-12-09T10:42:47.862Z,20.00
2017-12-09T10:45:16.171Z,19.97
2017-12-09T10:47:44.532Z,19.98
2017-12-09T10:50:12.831Z,19.99
2017-12-09T10:52:41.232Z,19.98
2017-12-09T10:55:09.936Z,19.93
2017-12-09T10:57:38.279Z,19.90
2017-12-09T11:00:07.687Z,19.88
2017-12-09T11:02:35.995Z,19.86
2017-12-09T11:05:04.541Z,19.84
2017-12-09T11:07:32.932Z,19.83
2017-12-09T11:10:01.527Z,19.85
2017-12-09T11:12:30.031Z,19.84
2017-12-09T11:14:58.275Z,19.89
2017-12-09T11:17:26.599Z,19.92
2017-12-09T11:19:54.866Z,19.92
2017-12-09T11:22:23.447Z,19.92
2017-12-09T11:24:51.712Z,19.91
2017-12-09T11:27:20.209Z,19.86
2017-12-09T11:29:48.668Z,19.89
2017-12-09T11:32:16.974Z,19.88
2017-12-09T11:34:45.234Z,19.85
2017-12-09T11:37:13.583Z,19.85
2017-12-09T11:39:41.888Z,19.91
2017-12-09T11:42:10.472Z,19.94
2017-12-09T11:44:39.388Z,19.95
2017-12-09T11:47:07.819Z,19.94
2017-12-09T11:49:36.147Z,19.94
2017-12-09T11:52:04.580Z,19.94
2017-12-09T11:54:32.875Z,19.86
2017-12-09T11:57:01.335Z,19.80
2017-12-09T11:59:29.628Z,19.77
2017-12-09T12:01:58.028Z,19.76
2017-12-09T12:04:26.387Z,19.71
2017-12-09T12:06:54.863Z,19.70
2017-12-09T12:09:23.130Z,19.72
2017-12-09T12:11:51.602Z,19.71
2017-12-09T12:14:19.868Z,19.67
2017-12-09T12:16:48.571Z,19.68
2017-12-09T12:19:17.080Z,19.63
2017-12-09T12:21:45.532Z,19.64
2017-12-09T12:24:15.126Z,19.61
2017-12-09T12:26:44.769Z,19.61
2017-12-09T12:29:13.083Z,19.59
2017-12-09T12:31:41.498Z,19.56
2017-12-09T12:34:09.943Z,19.53
2017-12-09T12:36:38.311Z,19.59
2017-12-09T12:39:06.623Z,19.61
2017-12-09T12:41:35.016Z,19.62
2017-12-09T12:44:03.311Z,19.67
2017-12-09T12:46:31.859Z,19.81
2017-12-09T12:49:00.188Z,19.93
2017-12-09T12:51:28.746Z,19.94
2017-12-09T12:53:57.043Z,19.86
2017-12-09T12:56:25.391Z,19.85
2017-12-09T12:58:53.752Z,19.84
2017-12-09T13:01:22.063Z,19.80
2017-12-09T13:03:50.337Z,19.82
2017-12-09T13:06:18.673Z,19.87
2017-12-09T13:08:47.049Z,19.83
2017-12-09T13:11:15.794Z,19.81
2017-12-09T13:13:44.085Z,19.84
2017-12-09T13:16:12.373Z,19.91
2017-12-09T13:18:40.653Z,19.95
2017-12-09T13:21:08.944Z,19.94
2017-12-09T13:23:37.530Z,19.96
2017-12-09T13:26:05.836Z,19.92
2017-12-09T13:28:34.095Z,19.90
2017-12-09T13:31:02.399Z,19.89
2017-12-09T13:33:30.676Z,19.82
2017-12-09T13:35:59.143Z,19.80
2017-12-09T13:38:27.431Z,19.83
2017-12-09T13:40:55.928Z,19.83
2017-12-09T13:43:24.240Z,19.84
2017-12-09T13:45:52.591Z,19.82
2017-12-09T13:48:20.931Z,19.85
2017-12-09T13:50:49.251Z,19.86
2017-12-09T13:53:17.587Z,19.91
2017-12-09T13:55:46.605Z,19.90
2017-12-09T13:58:15.913Z,19.88
2017-12-09T14:00:44.216Z,19.90
2017-12-09T14:03:12.627Z,19.89
2017-12-09T14:05:40.935Z,19.87
2017-12-09T14:08:09.272Z,19.87
2017-12-09T14:10:37.565Z,19.89
2017-12-09T14:13:05.881Z,19.90
2017-12-09T14:15:34.183Z,19.94
2017-12-09T14:18:02.472Z,19.88
2017-12-09T14:20:30.794Z,19.95
2017-12-09T14:22:59.094Z,19.96
2017-12-09T14:25:29.372Z,19.95
2017-12-09T14:27:58.588Z,19.92
2017-12-09T14:30:27.188Z,19.89
2017-12-09T14:32:55.682Z,19.86
2017-12-09T14:35:23.986Z,19.86
2017-12-09T14:37:52.444Z,19.80
2017-12-09T14:40:20.967Z,19.78
2017-12-09T14:42:49.381Z,19.76
2017-12-09T14:45:17.659Z,19.75
2017-12-09T14:47:46.081Z,19.70
2017-12-09T14:50:14.702Z,19.67
2017-12-09T14:52:42.988Z,19.64
2017-12-09T14:55:11.271Z,19.64
2017-12-09T14:57:39.584Z,19.65
2017-12-09T15:00:07.899Z,19.60
2017-12-09T15:02:36.184Z,19.60
2017-12-09T15:05:04.475Z,19.59
2017-12-09T15:07:32.756Z,19.59
2017-12-09T15:10:01.032Z,19.58
2017-12-09T15:12:29.351Z,19.58
2017-12-09T15:14:57.745Z,19.55
2017-12-09T15:17:26.331Z,19.51
2017-12-09T15:19:54.612Z,19.50
2017-12-09T15:22:22.991Z,19.43
2017-12-09T15:24:51.271Z,19.43
2017-12-09T15:27:19.630Z,19.41
2017-12-09T15:29:47.914Z,19.36
2017-12-09T15:32:16.299Z,19.37
2017-12-09T15:34:44.555Z,19.38
2017-12-09T15:37:12.897Z,19.34
2017-12-09T15:39:41.150Z,19.40
2017-12-09T15:42:09.541Z,19.44
2017-12-09T15:44:37.820Z,19.45
2017-12-09T15:47:06.192Z,19.48
2017-12-09T15:49:34.487Z,19.48
2017-12-09T15:52:02.837Z,19.51
2017-12-09T15:54:31.204Z,19.55
2017-12-09T15:56:59.572Z,19.58
2017-12-09T15:59:27.855Z,19.60
2017-12-09T16:01:56.216Z,19.63
2017-12-09T16:04:24.499Z,19.62
2017-12-09T16:06:52.867Z,19.57
2017-12-09T16:09:21.190Z,19.58
2017-12-09T16:11:49.528Z,19.61
2017-12-09T16:14:17.827Z,19.59
2017-12-09T16:16:46.180Z,19.62
2017-12-09T16:19:14.713Z,19.64
2017-12-09T16:21:43.218Z,19.66
2017-12-09T16:24:13.062Z,19.66
2017-12-09T16:26:41.460Z,19.65
2017-12-09T16:29:09.755Z,19.62
2017-12-09T16:31:38.052Z,19.63
2017-12-09T16:34:06.443Z,19.64
2017-12-09T16:36:34.731Z,19.62
2017-12-09T16:39:03.064Z,19.59
2017-12-09T16:41:31.385Z,19.58
2017-12-09T16:43:59.712Z,19.56
2017-12-09T16:46:28.032Z,19.54
2017-12-09T16:48:56.609Z,19.52
2017-12-09T16:51:24.919Z,19.52
2017-12-09T16:53:53.332Z,19.50
2017-12-09T16:56:21.625Z,19.50
2017-12-09T16:58:49.926Z,19.51
2017-12-09T17:01:18.258Z,19.51
2017-12-09T17:03:46.658Z,19.52
2017-12-09T17:06:15.081Z,19.49
2017-12-09T17:08:43.381Z,19.45
2017-12-09T17:11:11.679Z,19.46
2017-12-09T17:13:40.007Z,19.47
2017-12-09T17:16:08.311Z,19.43
2017-12-09T17:18:36.611Z,19.42
2017-12-09T17:21:04.953Z,19.42
2017-12-09T17:23:33.328Z,19.39
2017-12-09T17:26:01.739Z,19.35
2017-12-09T17:28:30.229Z,19.36
2017-12-09T17:30:58.830Z,19.34
2017-12-09T17:33:32.608Z,19.30
2017-12-09T17:36:07.235Z,19.32
2017-12-09T17:38:36.499Z,19.33
2017-12-09T17:41:05.012Z,19.31
2017-12-09T17:43:33.318Z,19.25
2017-12-09T17:46:01.649Z,19.27
2017-12-09T17:48:30.092Z,19.31
2017-12-09T17:50:58.464Z,19.31
2017-12-09T17:53:26.765Z,19.32
2017-12-09T17:55:55.254Z,19.30
2017-12-09T17:58:23.830Z,19.30
2017-12-09T18:00:52.247Z,19.30
2017-12-09T18:03:21.283Z,19.28
2017-12-09T18:05:49.755Z,19.29
2017-12-09T18:08:21.903Z,19.28
2017-12-09T18:10:51.776Z,19.30
2017-12-09T18:13:20.052Z,19.31
2017-12-09T18:15:48.383Z,19.31
2017-12-09T18:18:16.658Z,19.31
2017-12-09T18:20:45.035Z,19.29
2017-12-09T18:23:13.979Z,19.28
2017-12-09T18:25:44.124Z,19.25
2017-12-09T18:28:12.387Z,19.23
2017-12-09T18:30:40.675Z,19.07
2017-12-09T18:33:08.975Z,19.22
2017-12-09T18:35:37.355Z,19.19
2017-12-09T18:38:05.627Z,19.20
2017-12-09T18:40:34.062Z,19.20
2017-12-09T18:43:02.355Z,19.21
2017-12-09T18:45:30.976Z,19.16
2017-12-09T18:47:59.244Z,19.15
2017-12-09T18:50:27.572Z,19.13
2017-12-09T18:52:55.911Z,19.13
2017-12-09T18:55:24.227Z,19.09
2017-12-09T18:57:52.548Z,19.10
2017-12-09T19:00:20.925Z,19.09
2017-12-09T19:02:49.360Z,19.06
2017-12-09T19:05:17.671Z,19.06
2017-12-09T19:07:45.972Z,19.07
2017-12-09T19:10:14.619Z,19.08
2017-12-09T19:12:43.055Z,19.13
2017-12-09T19:15:11.358Z,19.11
2017-12-09T19:17:39.687Z,19.10
2017-12-09T19:20:08.352Z,19.11
2017-12-09T19:22:36.647Z,19.11
2017-12-09T19:25:05.017Z,19.15
2017-12-09T19:27:33.354Z,19.21
2017-12-09T19:30:02.052Z,19.21
2017-12-09T19:32:30.520Z,19.24
2017-12-09T19:34:58.920Z,19.28
2017-12-09T19:37:27.255Z,19.26
2017-12-09T19:39:55.754Z,19.26
2017-12-09T19:42:24.108Z,19.25
2017-12-09T19:44:52.439Z,19.24
2017-12-09T19:47:20.772Z,19.24
2017-12-09T19:49:49.094Z,19.26
2017-12-09T19:52:17.441Z,19.29
2017-12-09T19:54:45.739Z,19.32
2017-12-09T19:57:14.116Z,19.34
2017-12-09T19:59:42.447Z,19.34
2017-12-09T20:02:10.795Z,19.36
2017-12-09T20:04:39.148Z,19.36
2017-12-09T20:07:07.441Z,19.34
2017-12-09T20:09:35.724Z,19.34
2017-12-09T20:12:04.027Z,19.33
2017-12-09T20:14:32.359Z,19.31
2017-12-09T20:17:00.815Z,19.35
2017-12-09T20:19:29.091Z,19.35
2017-12-09T20:21:57.395Z,19.38
2017-12-09T20:24:26.622Z,19.42
2017-12-09T20:26:55.031Z,19.41
2017-12-09T20:29:23.307Z,19.38
2017-12-09T20:31:51.611Z,19.38
2017-12-09T20:34:20.067Z,19.37
2017-12-09T20:36:48.500Z,19.35
2017-12-09T20:39:16.760Z,19.39
2017-12-09T20:41:45.085Z,19.41
2017-12-09T20:44:13.471Z,19.39
2017-12-09T20:46:41.912Z,19.41
2017-12-09T20:49:10.327Z,19.42
2017-12-09T20:51:38.615Z,19.42
2017-12-09T20:54:07.089Z,19.41
2017-12-09T20:56:35.455Z,19.40
2017-12-09T20:59:04.552Z,19.35
2017-12-09T21:01:32.847Z,19.34
2017-12-09T21:04:01.144Z,19.35
2017-12-09T21:06:29.464Z,19.34
2017-12-09T21:08:57.767Z,19.37
2017-12-09T21:11:26.890Z,19.39
2017-12-09T21:13:56.468Z,19.44
2017-12-09T21:16:25.255Z,19.43
2017-12-09T21:18:53.530Z,19.45
2017-12-09T21:21:24.024Z,19.44
2017-12-09T21:23:54.633Z,19.44
2017-12-09T21:26:23.079Z,19.41
2017-12-09T21:28:51.415Z,19.39
2017-12-09T21:31:19.886Z,19.36
2017-12-09T21:33:48.172Z,19.35
2017-12-09T21:36:16.500Z,19.30
2017-12-09T21:38:44.799Z,19.28
2017-12-09T21:41:13.209Z,19.26
2017-12-09T21:43:41.685Z,19.24
2017-12-09T21:46:09.990Z,19.28
2017-12-09T21:48:40.288Z,19.35
2017-12-09T21:51:08.614Z,19.36
2017-12-09T21:53:37.119Z,19.36
2017-12-09T21:56:05.588Z,19.36
2017-12-09T21:58:33.986Z,19.38
2017-12-09T22:01:03.638Z,19.39
2017-12-09T22:03:34.451Z,19.36
2017-12-09T22:06:03.541Z,19.36
2017-12-09T22:08:32.318Z,19.36
2017-12-09T22:11:00.846Z,19.34
2017-12-09T22:13:29.124Z,19.33
2017-12-09T22:15:58.606Z,19.30
2017-12-09T22:18:27.199Z,19.26
2017-12-09T22:20:55.508Z,19.23
2017-12-09T22:23:23.817Z,19.21
2017-12-09T22:25:52.112Z,19.21
2017-12-09T22:28:20.456Z,19.22
2017-12-09T22:30:48.947Z,19.22
2017-12-09T22:33:17.255Z,19.22
2017-12-09T22:35:45.789Z,19.17
2017-12-09T22:38:14.131Z,19.21
2017-12-09T22:40:45.831Z,19.23
2017-12-09T22:43:14.491Z,19.30
2017-12-09T22:45:45.223Z,19.30
2017-12-09T22:48:14.379Z,19.29
2017-12-09T22:50:44.812Z,19.30
2017-12-09T22:53:14.546Z,19.28
2017-12-09T22:58:38.528Z,19.27
2017-12-09T23:01:07.098Z,19.26
2017-12-09T23:03:36.870Z,19.26
2017-12-09T23:06:05.845Z,19.21
2017-12-09T23:08:34.362Z,19.20
2017-12-09T23:11:02.947Z,19.18
2017-12-09T23:13:32.374Z,19.18
2017-12-09T23:16:01.120Z,19.14
2017-12-09T23:18:29.739Z,19.13
2017-12-09T23:20:58.231Z,19.15
2017-12-09T23:23:27.146Z,19.14
2017-12-09T23:25:56.170Z,19.13
2017-12-09T23:28:26.959Z,19.11
2017-12-09T23:30:57.183Z,19.11
2017-12-09T23:33:25.674Z,19.12
2017-12-09T23:35:54.180Z,19.10
2017-12-09T23:38:22.721Z,19.09
2017-12-09T23:40:51.279Z,19.08
2017-12-09T23:43:19.739Z,19.06
2017-12-09T23:45:48.211Z,19.05
2017-12-09T23:48:16.672Z,19.07
2017-12-09T23:50:45.150Z,19.03
2017-12-09T23:53:20.724Z,19.02
2017-12-09T23:55:53.256Z,19.00
2017-12-09T23:58:22.010Z,18.97
